Custom Search

Airport METAR Reports

 

YMAV - Avalon Airport, Australia
Distance from station: 0 0km
Updated: 19/06/2018 16:00
Clear
Clear
 Wind from E
Wind: E 13 km/h
Temperature: 11°C
Dew Point: 8°C
Humidity: 82%
Barometer: 1026 hPa
Clouds: Clear
Visibility: 10 km
2018/06/19 06:00 YMAV 190600Z AUTO 09007KT 9999 // NCD 11/08 Q1026
YMML - Melbourne Intl A, Australia
Distance from station: NE 50km
Updated: 19/06/2018 16:00
Mostly cloudy
Mostly cloudy
 Wind from ENE
Wind: ENE 13 km/h
Temperature: 13°C
Dew Point: 4°C
Humidity: 55%
Barometer: 1026 hPa
Clouds: Mostly cloudy
Visibility: 10 km
Cloud details: Few Clouds 1067 m
Mostly cloudy 7620 m
2018/06/19 06:00 YMML 190600Z 06007KT 9999 FEW035 BKN250 13/04 Q1026
YMEN - Melbourne/Essend, Australia
Distance from station: NE 51km
Updated: 19/06/2018 16:00
Clear
Clear
 Wind from ENE
Wind: ENE 9 km/h
Temperature: 13°C
Dew Point: 6°C
Humidity: 63%
Barometer: 1026 hPa
Clouds: Clear
Visibility: 10 km
2018/06/19 06:00 YMEN 190600Z AUTO 06005KT 9999 // NCD 13/06 Q1026
 
YWGT - Wangaratta Arp, Australia
Distance from station: NE 241km
Updated: 19/06/2018 16:00
Clear
Clear
 Wind from SW
Wind: SW 7 km/h
Temperature: 14°C
Dew Point: 2°C
Humidity: 44%
Barometer: 1026 hPa
Clouds: Clear
Visibility: 10 km
2018/06/19 06:00 YWGT 190600Z AUTO 22004KT 9999 // NCD 14/02 Q1026
YMAY - Albury Airport, Australia
Distance from station: NE 308km
Updated: 19/06/2018 16:00
Clear
Clear
 Wind from WNW
Wind: WNW 6 km/h
Temperature: 14°C
Dew Point: 5°C
Humidity: 55%
Barometer: 1026 hPa
Clouds: Clear
Visibility: 10 km
2018/06/19 06:00 YMAY 190600Z AUTO 29003KT 9999 // NCD 14/05 Q1026
YMTG - Mount Gambier, Australia
Distance from station: W 326km
Updated: 19/06/2018 16:00
Partly cloudy
Partly cloudy
 Wind from N
Wind: N 13 km/h
Temperature: 9°C
Wind Chill: 7°C
Dew Point: 6°C
Humidity: 82%
Barometer: 1025 hPa
Clouds: Partly cloudy
Visibility: 10 km
Cloud details: Partly cloudy 701 m
2018/06/19 06:00 YMTG 190600Z AUTO 36007KT 9999 // SCT023 09/06 Q1025
 
YNAR - Narrandera, Australia
Distance from station: NNE 413km
Updated: 19/06/2018 16:00

 Wind from S
Wind: S 7 km/h
Temperature: 14°C
Dew Point: 3°C
Humidity: 48%
Barometer: 1026 hPa
2018/06/19 06:00 YNAR 190600Z AUTO 19004KT 160V220 //// // ////// 14/03 Q1026
YSWG - Wagga Wagga(Cv/M, Australia
Distance from station: NE 418km
Updated: 19/06/2018 16:00
Clear
Clear
 Wind from SW
Wind: SW 4 km/h
Temperature: 14°C
Dew Point: 4°C
Humidity: 51%
Barometer: 1025 hPa
Summary: Clear
Visibility: greater than 10 km
2018/06/19 06:00 YSWG 190600Z 23002KT CAVOK 14/04 Q1025
YCOM - Cooma Snowy Mtns, Australia
Distance from station: ENE 441km
Updated: 19/06/2018 16:30
Overcast
Overcast
 Wind from SSW
Wind: SSW 19 km/h
Temperature: 5°C
Wind Chill: 1°C
Dew Point: 5°C
Humidity: 100%
Barometer: 1026 hPa
Clouds: Overcast
Visibility: 7 km
Cloud details: Overcast 152 m
Overcast 305 m
2018/06/19 06:30 YCOM 190630Z AUTO 21010KT 7000 // OVC005 OVC010 05/05 Q1026
 
YGTH - Griffith Arpt, Australia
Distance from station: NNE 444km
Updated: 19/06/2018 16:00
Clear
Clear
 Wind from ESE
Wind: ESE 13 km/h
Temperature: 14°C
Dew Point: 3°C
Humidity: 48%
Barometer: 1026 hPa
Clouds: Clear
Visibility: 10 km
2018/06/19 06:00 YGTH 190600Z AUTO 12007KT 9999 // NCD 14/03 Q1026
YMLT - Launceston Airpo, Australia
Distance from station: SSE 451km
Updated: 19/06/2018 16:00
Clear
Clear
 Wind from ENE
Wind: ENE 6 km/h
Temperature: 10°C
Dew Point: 4°C
Humidity: 67%
Barometer: 1029 hPa
Clouds: Clear
Visibility: 10 km
2018/06/19 06:00 YMLT 190600Z AUTO 06003KT 9999 // NCD 10/04 Q1029
YMIA - Mildura Arpt, Australia
Distance from station: NNW 474km
Updated: 19/06/2018 16:00
Clear
Clear
 Wind from NNE
Wind: NNE 7 km/h
Temperature: 13°C
Dew Point: 3°C
Humidity: 51%
Barometer: 1026 hPa
Clouds: Clear
Visibility: 10 km
2018/06/19 06:00 YMIA 190600Z AUTO 03004KT 010V070 9999 // NCD 13/03 Q1026
 
YMER - Merimbula Arpt, Australia
Distance from station: ENE 494km
Updated: 19/06/2018 16:00
Partly cloudy
Partly cloudy
 Wind from SSW
Wind: SSW 19 km/h
Temperature: 14°C
Dew Point: 9°C
Humidity: 72%
Barometer: 1026 hPa
Clouds: Partly cloudy
Visibility: 10 km
Cloud details: Partly cloudy 2621 m
2018/06/19 06:00 YMER 190600Z AUTO 21010KT 9999 // SCT086 14/09 Q1026
YSCB - Canberra (civ/Mi, Australia
Distance from station: NE 518km
Updated: 19/06/2018 16:00
Few Clouds
Few Clouds
 Wind from S
Wind: S 22 km/h
Temperature: 12°C
Dew Point: 3°C
Humidity: 54%
Barometer: 1025 hPa
Clouds: Few Clouds
Visibility: 10 km
Cloud details: Few Clouds 1219 m
2018/06/19 06:00 YSCB 190600Z 18012KT 9999 FEW040 12/03 Q1025 NOSIG
YMHB - Hobart/Tasmania, Australia
Distance from station: SSE 590km
Updated: 19/06/2018 16:00
Few Clouds
Few Clouds
 Wind from NE
Wind: NE 11 km/h
Temperature: 11°C
Dew Point: 6°C
Humidity: 72%
Barometer: 1029 hPa
Clouds: Few Clouds
Visibility: 10 km
Cloud details: Few Clouds 914 m
2018/06/19 06:00 YMHB 190600Z 04006KT 9999 FEW030 11/06 Q1029